<?xml version='1.0' encoding='UTF-8'?><gpx version="1.1" creator="JPX - https://github.com/jenetics/jpx" xmlns="http://www.topografix.com/GPX/1/1"><trk><trkseg><trkpt lat="42.4917595" lon="12.3884019"><ele>79.0</ele><time>2026-04-25T07:57:37.914Z</time></trkpt><trkpt lat="42.4916842" lon="12.3883727"><ele>79.0</ele><time>2026-04-25T07:57:39.912Z</time></trkpt><trkpt lat="42.4916029" lon="12.3883598"><ele>79.0</ele><time>2026-04-25T07:57:42.912Z</time></trkpt><trkpt lat="42.4915273" lon="12.3883405"><ele>79.0</ele><time>2026-04-25T07:57:45.913Z</time></trkpt><trkpt lat="42.4914422" lon="12.3883208"><ele>79.0</ele><time>2026-04-25T07:57:47.914Z</time></trkpt><trkpt lat="42.4913779" lon="12.3882986"><ele>79.0</ele><time>2026-04-25T07:57:48.914Z</time></trkpt><trkpt lat="42.4912554" lon="12.3882751"><ele>79.33333333333333</ele><time>2026-04-25T07:57:50.912Z</time></trkpt><trkpt lat="42.4911883" lon="12.388268"><ele>79.66666666666666</ele><time>2026-04-25T07:57:51.911Z</time></trkpt><trkpt lat="42.4911224" lon="12.3882645"><ele>80.0</ele><time>2026-04-25T07:57:52.913Z</time></trkpt><trkpt lat="42.4910072" lon="12.3882545"><ele>80.33333333333333</ele><time>2026-04-25T07:57:54.912Z</time></trkpt><trkpt lat="42.490907" lon="12.3882559"><ele>80.66666666666667</ele><time>2026-04-25T07:57:56.912Z</time></trkpt><trkpt lat="42.4908089" lon="12.3882669"><ele>81.0</ele><time>2026-04-25T07:57:58.913Z</time></trkpt><trkpt lat="42.490717" lon="12.3882815"><ele>81.0</ele><time>2026-04-25T07:58:00.913Z</time></trkpt><trkpt lat="42.4906175" lon="12.3882968"><ele>81.0</ele><time>2026-04-25T07:58:02.914Z</time></trkpt><trkpt lat="42.4905199" lon="12.3883035"><ele>81.0</ele><time>2026-04-25T07:58:04.912Z</time></trkpt><trkpt lat="42.4904237" lon="12.3883074"><ele>81.0</ele><time>2026-04-25T07:58:06.911Z</time></trkpt><trkpt lat="42.4903261" lon="12.3883237"><ele>81.0</ele><time>2026-04-25T07:58:08.914Z</time></trkpt><trkpt lat="42.4902293" lon="12.3883451"><ele>80.66666666666667</ele><time>2026-04-25T07:58:10.911Z</time></trkpt><trkpt lat="42.4901307" lon="12.3883585"><ele>80.33333333333333</ele><time>2026-04-25T07:58:12.913Z</time></trkpt><trkpt lat="42.4900473" lon="12.3883642"><ele>80.0</ele><time>2026-04-25T07:58:14.913Z</time></trkpt><trkpt lat="42.4899626" lon="12.3883729"><ele>79.66666666666666</ele><time>2026-04-25T07:58:17.912Z</time></trkpt><trkpt lat="42.4898924" lon="12.3883853"><ele>79.33333333333333</ele><time>2026-04-25T07:58:19.913Z</time></trkpt><trkpt lat="42.4898194" lon="12.3883926"><ele>79.0</ele><time>2026-04-25T07:58:21.912Z</time></trkpt><trkpt lat="42.4897453" lon="12.3883893"><ele>79.0</ele><time>2026-04-25T07:58:23.914Z</time></trkpt><trkpt lat="42.4896688" lon="12.3883596"><ele>79.0</ele><time>2026-04-25T07:58:25.913Z</time></trkpt><trkpt lat="42.4896008" lon="12.3883247"><ele>79.0</ele><time>2026-04-25T07:58:28.914Z</time></trkpt><trkpt lat="42.489519" lon="12.3882937"><ele>79.0</ele><time>2026-04-25T07:58:31.912Z</time></trkpt><trkpt lat="42.4894439" lon="12.3882766"><ele>79.0</ele><time>2026-04-25T07:58:33.912Z</time></trkpt><trkpt lat="42.4893736" lon="12.3882433"><ele>79.0</ele><time>2026-04-25T07:58:35.912Z</time></trkpt><trkpt lat="42.4892953" lon="12.388201"><ele>78.71428571428572</ele><time>2026-04-25T07:58:37.912Z</time></trkpt><trkpt lat="42.4892276" lon="12.3881567"><ele>78.42857142857143</ele><time>2026-04-25T07:58:39.912Z</time></trkpt><trkpt lat="42.4891638" lon="12.3881175"><ele>78.14285714285714</ele><time>2026-04-25T07:58:41.913Z</time></trkpt><trkpt lat="42.4891014" lon="12.3880701"><ele>77.85714285714286</ele><time>2026-04-25T07:58:44.913Z</time></trkpt><trkpt lat="42.489061" lon="12.3880042"><ele>77.57142857142857</ele><time>2026-04-25T07:58:51.912Z</time></trkpt><trkpt lat="42.4889929" lon="12.3879715"><ele>77.28571428571429</ele><time>2026-04-25T07:58:54.913Z</time></trkpt><trkpt lat="42.4889225" lon="12.3879664"><ele>77.0</ele><time>2026-04-25T07:58:57.913Z</time></trkpt><trkpt lat="42.4888273" lon="12.387988"><ele>76.83333333333334</ele><time>2026-04-25T07:59:00.913Z</time></trkpt><trkpt lat="42.488735" lon="12.3879825"><ele>76.66666666666667</ele><time>2026-04-25T07:59:03.913Z</time></trkpt><trkpt lat="42.4886681" lon="12.3879342"><ele>76.5</ele><time>2026-04-25T07:59:05.914Z</time></trkpt><trkpt lat="42.4885996" lon="12.3879071"><ele>76.33333333333333</ele><time>2026-04-25T07:59:07.912Z</time></trkpt><trkpt lat="42.4885101" lon="12.3879262"><ele>76.16666666666666</ele><time>2026-04-25T07:59:09.913Z</time></trkpt><trkpt lat="42.4884272" lon="12.3879604"><ele>76.0</ele><time>2026-04-25T07:59:11.912Z</time></trkpt><trkpt lat="42.488341" lon="12.3879977"><ele>76.39999999999999</ele><time>2026-04-25T07:59:13.913Z</time></trkpt><trkpt lat="42.4882577" lon="12.3880335"><ele>76.8</ele><time>2026-04-25T07:59:15.912Z</time></trkpt><trkpt lat="42.4881751" lon="12.388064"><ele>77.19999999999999</ele><time>2026-04-25T07:59:17.913Z</time></trkpt><trkpt lat="42.4880798" lon="12.3880849"><ele>77.6</ele><time>2026-04-25T07:59:19.913Z</time></trkpt><trkpt lat="42.4879822" lon="12.3881145"><ele>78.0</ele><time>2026-04-25T07:59:21.914Z</time></trkpt><trkpt lat="42.4878868" lon="12.3881527"><ele>78.6</ele><time>2026-04-25T07:59:23.913Z</time></trkpt><trkpt lat="42.4877954" lon="12.388187"><ele>79.19999999999999</ele><time>2026-04-25T07:59:25.911Z</time></trkpt><trkpt lat="42.4877022" lon="12.3882139"><ele>79.8</ele><time>2026-04-25T07:59:27.912Z</time></trkpt><trkpt lat="42.4876018" lon="12.3882419"><ele>80.39999999999999</ele><time>2026-04-25T07:59:29.912Z</time></trkpt><trkpt lat="42.4875011" lon="12.3882701"><ele>81.0</ele><time>2026-04-25T07:59:31.912Z</time></trkpt><trkpt lat="42.4874015" lon="12.3883013"><ele>81.0</ele><time>2026-04-25T07:59:33.913Z</time></trkpt><trkpt lat="42.4872991" lon="12.3883382"><ele>81.0</ele><time>2026-04-25T07:59:35.912Z</time></trkpt><trkpt lat="42.4872185" lon="12.3883722"><ele>81.0</ele><time>2026-04-25T07:59:37.912Z</time></trkpt><trkpt lat="42.4871295" lon="12.3884087"><ele>81.0</ele><time>2026-04-25T07:59:39.912Z</time></trkpt><trkpt lat="42.4870531" lon="12.3884378"><ele>81.0</ele><time>2026-04-25T07:59:41.912Z</time></trkpt><trkpt lat="42.4869898" lon="12.388477"><ele>81.0</ele><time>2026-04-25T07:59:43.912Z</time></trkpt><trkpt lat="42.486926" lon="12.3885133"><ele>82.5</ele><time>2026-04-25T07:59:45.912Z</time></trkpt><trkpt lat="42.4868576" lon="12.3885488"><ele>84.0</ele><time>2026-04-25T07:59:47.913Z</time></trkpt><trkpt lat="42.4867688" lon="12.3885948"><ele>85.5</ele><time>2026-04-25T07:59:50.912Z</time></trkpt><trkpt lat="42.4866976" lon="12.3886176"><ele>87.0</ele><time>2026-04-25T07:59:53.913Z</time></trkpt><trkpt lat="42.4866331" lon="12.3886421"><ele>88.5</ele><time>2026-04-25T07:59:58.911Z</time></trkpt><trkpt lat="42.4865635" lon="12.3886854"><ele>90.0</ele><time>2026-04-25T08:00:03.913Z</time></trkpt><trkpt lat="42.4864885" lon="12.3887657"><ele>90.0</ele><time>2026-04-25T08:00:06.912Z</time></trkpt><trkpt lat="42.486427" lon="12.3888223"><ele>90.0</ele><time>2026-04-25T08:00:08.913Z</time></trkpt><trkpt lat="42.4863676" lon="12.3888635"><ele>90.0</ele><time>2026-04-25T08:00:10.912Z</time></trkpt><trkpt lat="42.4862863" lon="12.3889143"><ele>90.0</ele><time>2026-04-25T08:00:13.911Z</time></trkpt><trkpt lat="42.4862031" lon="12.3889649"><ele>90.0</ele><time>2026-04-25T08:00:16.912Z</time></trkpt><trkpt lat="42.4861187" lon="12.3889866"><ele>90.0</ele><time>2026-04-25T08:00:18.913Z</time></trkpt><trkpt lat="42.4860379" lon="12.3889874"><ele>90.33333333333333</ele><time>2026-04-25T08:00:20.912Z</time></trkpt><trkpt lat="42.4859456" lon="12.3889622"><ele>90.66666666666667</ele><time>2026-04-25T08:00:22.912Z</time></trkpt><trkpt lat="42.4858586" lon="12.3889463"><ele>91.0</ele><time>2026-04-25T08:00:24.913Z</time></trkpt><trkpt lat="42.4857747" lon="12.3889546"><ele>91.33333333333334</ele><time>2026-04-25T08:00:26.913Z</time></trkpt><trkpt lat="42.485705" lon="12.3889914"><ele>91.66666666666667</ele><time>2026-04-25T08:00:28.913Z</time></trkpt><trkpt lat="42.4856487" lon="12.3890393"><ele>92.0</ele><time>2026-04-25T08:00:30.911Z</time></trkpt><trkpt lat="42.4855982" lon="12.3891095"><ele>92.0</ele><time>2026-04-25T08:00:33.912Z</time></trkpt><trkpt lat="42.4855345" lon="12.3891399"><ele>92.0</ele><time>2026-04-25T08:00:38.912Z</time></trkpt><trkpt lat="42.4854808" lon="12.389189"><ele>92.0</ele><time>2026-04-25T08:00:43.912Z</time></trkpt><trkpt lat="42.4854109" lon="12.3891827"><ele>92.0</ele><time>2026-04-25T08:01:13.912Z</time></trkpt><trkpt lat="42.4853546" lon="12.3891093"><ele>92.0</ele><time>2026-04-25T08:01:17.912Z</time></trkpt><trkpt lat="42.4853368" lon="12.3890089"><ele>92.0</ele><time>2026-04-25T08:02:21.912Z</time></trkpt><trkpt lat="42.4853558" lon="12.3888751"><ele>92.83333333333334</ele><time>2026-04-25T08:02:24.912Z</time></trkpt><trkpt lat="42.4853794" lon="12.3887599"><ele>93.66666666666667</ele><time>2026-04-25T08:02:26.912Z</time></trkpt><trkpt lat="42.4854079" lon="12.3886408"><ele>94.5</ele><time>2026-04-25T08:02:28.913Z</time></trkpt><trkpt lat="42.4854313" lon="12.3885296"><ele>95.33333333333334</ele><time>2026-04-25T08:02:30.911Z</time></trkpt><trkpt lat="42.4854451" lon="12.3884211"><ele>96.16666666666667</ele><time>2026-04-25T08:02:32.911Z</time></trkpt><trkpt lat="42.4854498" lon="12.3883211"><ele>97.0</ele><time>2026-04-25T08:02:34.911Z</time></trkpt><trkpt lat="42.4854511" lon="12.3882328"><ele>97.16666666666667</ele><time>2026-04-25T08:02:36.911Z</time></trkpt><trkpt lat="42.4854276" lon="12.388151"><ele>97.33333333333334</ele><time>2026-04-25T08:02:38.912Z</time></trkpt><trkpt lat="42.4853587" lon="12.3880581"><ele>97.5</ele><time>2026-04-25T08:02:41.912Z</time></trkpt><trkpt lat="42.4852901" lon="12.3879728"><ele>97.66666666666666</ele><time>2026-04-25T08:02:44.911Z</time></trkpt><trkpt lat="42.4852426" lon="12.387915"><ele>97.83333333333333</ele><time>2026-04-25T08:02:46.912Z</time></trkpt><trkpt lat="42.485189" lon="12.3878604"><ele>98.0</ele><time>2026-04-25T08:02:48.912Z</time></trkpt><trkpt lat="42.4851196" lon="12.387788"><ele>98.99999999999999</ele><time>2026-04-25T08:02:51.912Z</time></trkpt><trkpt lat="42.4850661" lon="12.3877381"><ele>100.0</ele><time>2026-04-25T08:02:53.912Z</time></trkpt><trkpt lat="42.4849918" lon="12.3876643"><ele>101.0</ele><time>2026-04-25T08:02:56.91Z</time></trkpt><trkpt lat="42.4849383" lon="12.3876089"><ele>102.0</ele><time>2026-04-25T08:02:58.912Z</time></trkpt><trkpt lat="42.4848877" lon="12.3875466"><ele>102.99999999999999</ele><time>2026-04-25T08:03:00.911Z</time></trkpt><trkpt lat="42.4848403" lon="12.3874788"><ele>104.0</ele><time>2026-04-25T08:03:02.911Z</time></trkpt><trkpt lat="42.4847795" lon="12.3873859"><ele>104.0</ele><time>2026-04-25T08:03:05.911Z</time></trkpt><trkpt lat="42.4847205" lon="12.3872906"><ele>104.0</ele><time>2026-04-25T08:03:08.911Z</time></trkpt><trkpt lat="42.4846785" lon="12.3872132"><ele>104.0</ele><time>2026-04-25T08:03:10.912Z</time></trkpt><trkpt lat="42.4846327" lon="12.3871333"><ele>104.0</ele><time>2026-04-25T08:03:12.911Z</time></trkpt><trkpt lat="42.4845861" lon="12.3870561"><ele>104.0</ele><time>2026-04-25T08:03:14.911Z</time></trkpt><trkpt lat="42.4845443" lon="12.3869808"><ele>104.0</ele><time>2026-04-25T08:03:16.912Z</time></trkpt><trkpt lat="42.4845066" lon="12.3869049"><ele>104.0</ele><time>2026-04-25T08:03:19.911Z</time></trkpt><trkpt lat="42.4844701" lon="12.3867905"><ele>106.28571428571428</ele><time>2026-04-25T08:03:22.911Z</time></trkpt><trkpt lat="42.4844342" lon="12.3867104"><ele>108.57142857142858</ele><time>2026-04-25T08:03:24.91Z</time></trkpt><trkpt lat="42.4843933" lon="12.3866422"><ele>110.85714285714286</ele><time>2026-04-25T08:03:26.911Z</time></trkpt><trkpt lat="42.4843553" lon="12.3865715"><ele>113.14285714285714</ele><time>2026-04-25T08:03:28.913Z</time></trkpt><trkpt lat="42.48432" lon="12.3865005"><ele>115.42857142857142</ele><time>2026-04-25T08:03:31.912Z</time></trkpt><trkpt lat="42.4843705" lon="12.3864432"><ele>117.71428571428572</ele><time>2026-04-25T08:03:52.911Z</time></trkpt><trkpt lat="42.4844463" lon="12.3864447"><ele>120.0</ele><time>2026-04-25T08:03:57.91Z</time></trkpt><trkpt lat="42.4845225" lon="12.3864318"><ele>120.0</ele><time>2026-04-25T08:04:01.91Z</time></trkpt><trkpt lat="42.4845928" lon="12.386422"><ele>120.0</ele><time>2026-04-25T08:04:04.911Z</time></trkpt><trkpt lat="42.4846611" lon="12.3864116"><ele>120.0</ele><time>2026-04-25T08:04:08.91Z</time></trkpt><trkpt lat="42.4847378" lon="12.38638"><ele>120.0</ele><time>2026-04-25T08:04:13.911Z</time></trkpt><trkpt lat="42.4847833" lon="12.3863183"><ele>120.0</ele><time>2026-04-25T08:04:18.912Z</time></trkpt><trkpt lat="42.4848029" lon="12.3862298"><ele>120.0</ele><time>2026-04-25T08:04:23.912Z</time></trkpt><trkpt lat="42.4848054" lon="12.3861349"><ele>120.0</ele><time>2026-04-25T08:04:27.912Z</time></trkpt><trkpt lat="42.4848048" lon="12.3860125"><ele>117.33333333333333</ele><time>2026-04-25T08:04:30.912Z</time></trkpt><trkpt lat="42.4848045" lon="12.3859066"><ele>114.66666666666666</ele><time>2026-04-25T08:04:33.912Z</time></trkpt><trkpt lat="42.4848097" lon="12.3858215"><ele>112.0</ele><time>2026-04-25T08:04:35.911Z</time></trkpt><trkpt lat="42.4848149" lon="12.3857358"><ele>109.33333333333333</ele><time>2026-04-25T08:04:37.911Z</time></trkpt><trkpt lat="42.4848301" lon="12.385623"><ele>106.66666666666666</ele><time>2026-04-25T08:04:40.912Z</time></trkpt><trkpt lat="42.4848578" lon="12.3855328"><ele>104.0</ele><time>2026-04-25T08:04:43.912Z</time></trkpt><trkpt lat="42.4849244" lon="12.3854447"><ele>103.6</ele><time>2026-04-25T08:04:46.912Z</time></trkpt><trkpt lat="42.4849902" lon="12.3853577"><ele>103.2</ele><time>2026-04-25T08:04:48.911Z</time></trkpt><trkpt lat="42.4850755" lon="12.3852767"><ele>102.8</ele><time>2026-04-25T08:04:50.91Z</time></trkpt><trkpt lat="42.4851544" lon="12.3852068"><ele>102.39999999999999</ele><time>2026-04-25T08:04:52.913Z</time></trkpt><trkpt lat="42.485224" lon="12.3851322"><ele>102.0</ele><time>2026-04-25T08:04:54.91Z</time></trkpt><trkpt lat="42.4852864" lon="12.3850596"><ele>102.0</ele><time>2026-04-25T08:04:56.91Z</time></trkpt><trkpt lat="42.4853374" lon="12.3849815"><ele>102.0</ele><time>2026-04-25T08:04:58.912Z</time></trkpt><trkpt lat="42.4853882" lon="12.3849028"><ele>102.0</ele><time>2026-04-25T08:05:01.913Z</time></trkpt><trkpt lat="42.4854216" lon="12.3848221"><ele>102.0</ele><time>2026-04-25T08:05:05.911Z</time></trkpt><trkpt lat="42.4854626" lon="12.3847536"><ele>102.0</ele><time>2026-04-25T08:05:07.911Z</time></trkpt><trkpt lat="42.4855087" lon="12.3846631"><ele>102.0</ele><time>2026-04-25T08:05:10.911Z</time></trkpt><trkpt lat="42.4855578" lon="12.3845715"><ele>99.83333333333333</ele><time>2026-04-25T08:05:13.91Z</time></trkpt><trkpt lat="42.4856088" lon="12.3845013"><ele>97.66666666666667</ele><time>2026-04-25T08:05:16.912Z</time></trkpt><trkpt lat="42.4856614" lon="12.3844049"><ele>95.5</ele><time>2026-04-25T08:05:20.91Z</time></trkpt><trkpt lat="42.4856962" lon="12.384295"><ele>93.33333333333334</ele><time>2026-04-25T08:05:23.911Z</time></trkpt><trkpt lat="42.4857066" lon="12.3842072"><ele>91.16666666666667</ele><time>2026-04-25T08:05:25.912Z</time></trkpt><trkpt lat="42.4857186" lon="12.3840896"><ele>89.0</ele><time>2026-04-25T08:05:28.911Z</time></trkpt><trkpt lat="42.4857354" lon="12.3839712"><ele>89.0</ele><time>2026-04-25T08:05:31.91Z</time></trkpt><trkpt lat="42.485752" lon="12.3838765"><ele>89.0</ele><time>2026-04-25T08:05:33.91Z</time></trkpt><trkpt lat="42.4857769" lon="12.3837762"><ele>89.0</ele><time>2026-04-25T08:05:35.91Z</time></trkpt><trkpt lat="42.4858138" lon="12.3836768"><ele>89.0</ele><time>2026-04-25T08:05:37.91Z</time></trkpt><trkpt lat="42.4858597" lon="12.3835817"><ele>89.0</ele><time>2026-04-25T08:05:39.911Z</time></trkpt><trkpt lat="42.4859074" lon="12.38349"><ele>89.0</ele><time>2026-04-25T08:05:41.911Z</time></trkpt><trkpt lat="42.4859466" lon="12.38341"><ele>88.0</ele><time>2026-04-25T08:05:43.91Z</time></trkpt><trkpt lat="42.4859905" lon="12.3833395"><ele>87.0</ele><time>2026-04-25T08:05:45.911Z</time></trkpt><trkpt lat="42.4860435" lon="12.3832681"><ele>86.0</ele><time>2026-04-25T08:05:47.912Z</time></trkpt><trkpt lat="42.4861119" lon="12.383197"><ele>85.0</ele><time>2026-04-25T08:05:49.911Z</time></trkpt><trkpt lat="42.4861786" lon="12.3831341"><ele>84.0</ele><time>2026-04-25T08:05:51.91Z</time></trkpt><trkpt lat="42.4862494" lon="12.3830834"><ele>83.0</ele><time>2026-04-25T08:05:53.91Z</time></trkpt><trkpt lat="42.4863257" lon="12.3830419"><ele>81.80000000000001</ele><time>2026-04-25T08:05:55.912Z</time></trkpt><trkpt lat="42.4864151" lon="12.3829885"><ele>80.60000000000001</ele><time>2026-04-25T08:05:57.911Z</time></trkpt><trkpt lat="42.4865091" lon="12.382943"><ele>79.4</ele><time>2026-04-25T08:05:59.91Z</time></trkpt><trkpt lat="42.4866063" lon="12.3828989"><ele>78.2</ele><time>2026-04-25T08:06:01.911Z</time></trkpt><trkpt lat="42.4866985" lon="12.3828511"><ele>77.0</ele><time>2026-04-25T08:06:03.911Z</time></trkpt><trkpt lat="42.4867961" lon="12.3828173"><ele>77.0</ele><time>2026-04-25T08:06:05.911Z</time></trkpt><trkpt lat="42.4868822" lon="12.3827897"><ele>77.0</ele><time>2026-04-25T08:06:07.911Z</time></trkpt><trkpt lat="42.4869711" lon="12.3827633"><ele>77.0</ele><time>2026-04-25T08:06:09.911Z</time></trkpt><trkpt lat="42.487067" lon="12.3827236"><ele>77.0</ele><time>2026-04-25T08:06:11.911Z</time></trkpt><trkpt lat="42.4871649" lon="12.3826844"><ele>77.0</ele><time>2026-04-25T08:06:13.911Z</time></trkpt><trkpt lat="42.4872536" lon="12.3826513"><ele>76.83333333333334</ele><time>2026-04-25T08:06:15.911Z</time></trkpt><trkpt lat="42.4873382" lon="12.3826098"><ele>76.66666666666667</ele><time>2026-04-25T08:06:17.911Z</time></trkpt><trkpt lat="42.4874079" lon="12.3825784"><ele>76.5</ele><time>2026-04-25T08:06:19.911Z</time></trkpt><trkpt lat="42.4874926" lon="12.3825371"><ele>76.33333333333333</ele><time>2026-04-25T08:06:22.912Z</time></trkpt><trkpt lat="42.4875577" lon="12.3824985"><ele>76.16666666666666</ele><time>2026-04-25T08:06:25.91Z</time></trkpt><trkpt lat="42.4876268" lon="12.3824611"><ele>76.0</ele><time>2026-04-25T08:08:23.909Z</time></trkpt><trkpt lat="42.4876549" lon="12.3823789"><ele>76.0</ele><time>2026-04-25T08:08:29.911Z</time></trkpt><trkpt lat="42.48766" lon="12.3822757"><ele>76.0</ele><time>2026-04-25T08:08:33.911Z</time></trkpt><trkpt lat="42.4877219" lon="12.3822007"><ele>76.0</ele><time>2026-04-25T08:08:36.91Z</time></trkpt><trkpt lat="42.4877815" lon="12.3821502"><ele>77.0</ele><time>2026-04-25T08:08:38.91Z</time></trkpt><trkpt lat="42.4878052" lon="12.3820684"><ele>77.0</ele><time>2026-04-25T08:08:40.911Z</time></trkpt><trkpt lat="42.4877846" lon="12.3819785"><ele>77.0</ele><time>2026-04-25T08:08:43.91Z</time></trkpt><trkpt lat="42.487745" lon="12.381912"><ele>77.0</ele><time>2026-04-25T08:08:52.91Z</time></trkpt></trkseg></trk></gpx>